sensor_id;sensor_type;location;lat;lon;timestamp;temperature;humidity
431;DHT22;202;48.764;9.172;2022-08-19T00:01:57;23.40;49.00
431;DHT22;202;48.764;9.172;2022-08-19T00:04:31;23.30;49.20
431;DHT22;202;48.764;9.172;2022-08-19T00:07:04;23.30;49.30
431;DHT22;202;48.764;9.172;2022-08-19T00:09:39;23.20;49.60
431;DHT22;202;48.764;9.172;2022-08-19T00:12:09;23.10;49.60
431;DHT22;202;48.764;9.172;2022-08-19T00:14:41;23.10;50.00
431;DHT22;202;48.764;9.172;2022-08-19T00:17:11;23.10;50.20
431;DHT22;202;48.764;9.172;2022-08-19T00:19:48;23.10;50.50
431;DHT22;202;48.764;9.172;2022-08-19T00:22:15;23.10;49.90
431;DHT22;202;48.764;9.172;2022-08-19T00:24:44;23.20;49.80
431;DHT22;202;48.764;9.172;2022-08-19T00:27:17;23.10;50.00
431;DHT22;202;48.764;9.172;2022-08-19T00:29:44;23.10;49.80
431;DHT22;202;48.764;9.172;2022-08-19T00:32:17;23.10;50.00
431;DHT22;202;48.764;9.172;2022-08-19T00:34:51;23.10;49.80
431;DHT22;202;48.764;9.172;2022-08-19T00:37:27;23.10;50.10
431;DHT22;202;48.764;9.172;2022-08-19T00:39:57;23.10;50.00
431;DHT22;202;48.764;9.172;2022-08-19T00:42:27;23.10;50.20
431;DHT22;202;48.764;9.172;2022-08-19T00:45:12;23.00;50.30
431;DHT22;202;48.764;9.172;2022-08-19T00:47:41;23.00;50.50
431;DHT22;202;48.764;9.172;2022-08-19T00:50:11;22.90;50.60
431;DHT22;202;48.764;9.172;2022-08-19T00:52:45;23.00;50.60
431;DHT22;202;48.764;9.172;2022-08-19T00:55:26;23.00;50.80
431;DHT22;202;48.764;9.172;2022-08-19T00:57:57;22.90;50.60
431;DHT22;202;48.764;9.172;2022-08-19T01:00:26;22.90;50.70
431;DHT22;202;48.764;9.172;2022-08-19T01:02:54;22.90;50.90
431;DHT22;202;48.764;9.172;2022-08-19T01:05:37;22.90;50.90
431;DHT22;202;48.764;9.172;2022-08-19T01:08:12;22.90;51.00
431;DHT22;202;48.764;9.172;2022-08-19T01:10:52;22.90;50.70
431;DHT22;202;48.764;9.172;2022-08-19T01:13:30;22.90;50.90
431;DHT22;202;48.764;9.172;2022-08-19T01:16:11;22.90;50.90
431;DHT22;202;48.764;9.172;2022-08-19T01:18:44;23.00;50.70
431;DHT22;202;48.764;9.172;2022-08-19T01:21:29;23.00;50.90
431;DHT22;202;48.764;9.172;2022-08-19T01:24:11;23.00;50.70
431;DHT22;202;48.764;9.172;2022-08-19T01:26:41;23.00;50.80
431;DHT22;202;48.764;9.172;2022-08-19T01:29:12;23.00;50.70
431;DHT22;202;48.764;9.172;2022-08-19T01:31:41;23.00;50.80
431;DHT22;202;48.764;9.172;2022-08-19T01:34:11;23.00;50.70
431;DHT22;202;48.764;9.172;2022-08-19T01:36:44;23.00;50.90
431;DHT22;202;48.764;9.172;2022-08-19T01:39:19;22.90;51.10
431;DHT22;202;48.764;9.172;2022-08-19T01:41:51;22.90;51.10
431;DHT22;202;48.764;9.172;2022-08-19T01:44:22;22.90;51.30
431;DHT22;202;48.764;9.172;2022-08-19T01:46:51;22.90;51.50
431;DHT22;202;48.764;9.172;2022-08-19T01:49:24;22.80;51.50
431;DHT22;202;48.764;9.172;2022-08-19T01:51:54;22.70;51.70
431;DHT22;202;48.764;9.172;2022-08-19T01:54:26;22.70;52.00
431;DHT22;202;48.764;9.172;2022-08-19T01:56:58;22.70;52.40
431;DHT22;202;48.764;9.172;2022-08-19T01:59:32;22.70;52.40
431;DHT22;202;48.764;9.172;2022-08-19T02:02:05;22.70;52.50
431;DHT22;202;48.764;9.172;2022-08-19T02:04:36;22.60;52.70
431;DHT22;202;48.764;9.172;2022-08-19T02:07:11;22.60;52.70
431;DHT22;202;48.764;9.172;2022-08-19T02:09:49;22.60;53.20
431;DHT22;202;48.764;9.172;2022-08-19T02:12:23;22.60;52.90
431;DHT22;202;48.764;9.172;2022-08-19T02:14:55;22.60;53.40
431;DHT22;202;48.764;9.172;2022-08-19T02:17:25;22.60;53.20
431;DHT22;202;48.764;9.172;2022-08-19T02:19:57;22.50;53.30
431;DHT22;202;48.764;9.172;2022-08-19T02:22:25;22.60;53.40
431;DHT22;202;48.764;9.172;2022-08-19T02:24:57;22.60;53.40
431;DHT22;202;48.764;9.172;2022-08-19T02:27:26;22.70;53.00
431;DHT22;202;48.764;9.172;2022-08-19T02:29:58;22.70;53.10
431;DHT22;202;48.764;9.172;2022-08-19T02:32:26;22.60;53.60
431;DHT22;202;48.764;9.172;2022-08-19T02:34:58;22.50;53.80
431;DHT22;202;48.764;9.172;2022-08-19T02:37:48;22.60;54.10
431;DHT22;202;48.764;9.172;2022-08-19T02:40:34;22.50;53.90
431;DHT22;202;48.764;9.172;2022-08-19T02:43:12;22.60;54.00
431;DHT22;202;48.764;9.172;2022-08-19T02:45:48;22.60;54.00
431;DHT22;202;48.764;9.172;2022-08-19T02:48:17;22.60;54.00
431;DHT22;202;48.764;9.172;2022-08-19T02:50:58;22.60;54.30
431;DHT22;202;48.764;9.172;2022-08-19T02:53:30;22.60;53.90
431;DHT22;202;48.764;9.172;2022-08-19T02:56:05;22.60;53.70
431;DHT22;202;48.764;9.172;2022-08-19T02:58:35;22.60;54.10
431;DHT22;202;48.764;9.172;2022-08-19T03:01:05;22.60;53.80
431;DHT22;202;48.764;9.172;2022-08-19T03:03:36;22.50;54.10
431;DHT22;202;48.764;9.172;2022-08-19T03:06:08;22.50;54.80
431;DHT22;202;48.764;9.172;2022-08-19T03:08:45;22.60;54.90
431;DHT22;202;48.764;9.172;2022-08-19T03:11:22;22.60;54.90
431;DHT22;202;48.764;9.172;2022-08-19T03:13:55;22.50;54.80
431;DHT22;202;48.764;9.172;2022-08-19T03:16:25;22.50;54.80
431;DHT22;202;48.764;9.172;2022-08-19T03:18:56;22.50;54.80
431;DHT22;202;48.764;9.172;2022-08-19T03:21:36;22.40;55.50
431;DHT22;202;48.764;9.172;2022-08-19T03:24:07;22.30;55.20
431;DHT22;202;48.764;9.172;2022-08-19T03:26:38;22.20;55.80
431;DHT22;202;48.764;9.172;2022-08-19T03:29:24;22.20;56.50
431;DHT22;202;48.764;9.172;2022-08-19T03:32:15;22.10;57.00
431;DHT22;202;48.764;9.172;2022-08-19T03:34:48;22.10;57.20
431;DHT22;202;48.764;9.172;2022-08-19T03:37:24;22.20;57.80
431;DHT22;202;48.764;9.172;2022-08-19T03:39:59;22.20;57.80
431;DHT22;202;48.764;9.172;2022-08-19T03:42:30;22.20;57.20
431;DHT22;202;48.764;9.172;2022-08-19T03:45:08;22.30;57.20
431;DHT22;202;48.764;9.172;2022-08-19T03:47:38;22.20;56.60
431;DHT22;202;48.764;9.172;2022-08-19T03:50:09;22.30;56.70
431;DHT22;202;48.764;9.172;2022-08-19T03:52:37;22.20;56.90
431;DHT22;202;48.764;9.172;2022-08-19T03:55:10;22.20;56.90
431;DHT22;202;48.764;9.172;2022-08-19T03:57:43;22.20;57.10
431;DHT22;202;48.764;9.172;2022-08-19T04:00:15;22.10;57.00
431;DHT22;202;48.764;9.172;2022-08-19T04:02:49;22.20;57.20
431;DHT22;202;48.764;9.172;2022-08-19T04:05:19;22.20;57.10
431;DHT22;202;48.764;9.172;2022-08-19T04:07:54;22.10;57.30
431;DHT22;202;48.764;9.172;2022-08-19T04:10:40;22.10;57.40
431;DHT22;202;48.764;9.172;2022-08-19T04:13:20;22.20;56.90
431;DHT22;202;48.764;9.172;2022-08-19T04:15:53;22.10;56.60
431;DHT22;202;48.764;9.172;2022-08-19T04:18:23;22.10;58.00
431;DHT22;202;48.764;9.172;2022-08-19T04:20:59;22.10;57.50
431;DHT22;202;48.764;9.172;2022-08-19T04:23:30;22.10;57.50
431;DHT22;202;48.764;9.172;2022-08-19T04:26:00;22.00;57.10
431;DHT22;202;48.764;9.172;2022-08-19T04:28:34;22.00;57.30
431;DHT22;202;48.764;9.172;2022-08-19T04:31:15;22.10;57.40
431;DHT22;202;48.764;9.172;2022-08-19T04:33:52;22.10;57.30
431;DHT22;202;48.764;9.172;2022-08-19T04:36:50;22.10;57.20
431;DHT22;202;48.764;9.172;2022-08-19T04:39:31;22.20;57.00
431;DHT22;202;48.764;9.172;2022-08-19T04:42:29;22.10;57.50
431;DHT22;202;48.764;9.172;2022-08-19T04:45:43;22.10;57.30
431;DHT22;202;48.764;9.172;2022-08-19T04:48:19;22.10;57.60
431;DHT22;202;48.764;9.172;2022-08-19T04:50:52;22.10;57.60
431;DHT22;202;48.764;9.172;2022-08-19T04:53:23;22.10;57.40
431;DHT22;202;48.764;9.172;2022-08-19T04:55:50;22.10;57.70
431;DHT22;202;48.764;9.172;2022-08-19T04:58:18;22.00;58.00
431;DHT22;202;48.764;9.172;2022-08-19T05:00:46;22.00;57.70
431;DHT22;202;48.764;9.172;2022-08-19T05:03:13;22.00;58.40
431;DHT22;202;48.764;9.172;2022-08-19T05:05:43;21.90;58.60
431;DHT22;202;48.764;9.172;2022-08-19T05:08:10;21.90;58.80
431;DHT22;202;48.764;9.172;2022-08-19T05:10:38;22.00;58.60
431;DHT22;202;48.764;9.172;2022-08-19T05:13:06;21.80;58.60
431;DHT22;202;48.764;9.172;2022-08-19T05:15:36;21.90;59.20
431;DHT22;202;48.764;9.172;2022-08-19T05:18:04;21.90;59.20
431;DHT22;202;48.764;9.172;2022-08-19T05:20:49;22.00;59.20
431;DHT22;202;48.764;9.172;2022-08-19T05:23:33;22.00;58.70
431;DHT22;202;48.764;9.172;2022-08-19T05:26:00;22.00;58.20
431;DHT22;202;48.764;9.172;2022-08-19T05:28:26;22.00;58.40
431;DHT22;202;48.764;9.172;2022-08-19T05:30:53;22.00;58.30
431;DHT22;202;48.764;9.172;2022-08-19T05:33:22;22.00;58.70
431;DHT22;202;48.764;9.172;2022-08-19T05:35:50;22.00;58.70
431;DHT22;202;48.764;9.172;2022-08-19T05:38:18;22.10;58.30
431;DHT22;202;48.764;9.172;2022-08-19T05:40:45;22.20;58.20
431;DHT22;202;48.764;9.172;2022-08-19T05:43:12;22.20;57.80
431;DHT22;202;48.764;9.172;2022-08-19T05:45:41;22.20;57.80
431;DHT22;202;48.764;9.172;2022-08-19T05:48:08;22.20;57.90
431;DHT22;202;48.764;9.172;2022-08-19T05:50:38;22.20;57.90
431;DHT22;202;48.764;9.172;2022-08-19T05:53:05;22.20;57.80
431;DHT22;202;48.764;9.172;2022-08-19T05:55:32;22.20;57.80
431;DHT22;202;48.764;9.172;2022-08-19T05:57:59;22.30;57.50
431;DHT22;202;48.764;9.172;2022-08-19T06:00:28;22.30;57.20
431;DHT22;202;48.764;9.172;2022-08-19T06:02:56;22.40;57.00
431;DHT22;202;48.764;9.172;2022-08-19T06:05:24;22.30;56.80
431;DHT22;202;48.764;9.172;2022-08-19T06:07:53;22.30;57.00
431;DHT22;202;48.764;9.172;2022-08-19T06:10:20;22.30;56.60
431;DHT22;202;48.764;9.172;2022-08-19T06:12:47;22.20;56.90
431;DHT22;202;48.764;9.172;2022-08-19T06:15:14;22.20;57.10
431;DHT22;202;48.764;9.172;2022-08-19T06:17:41;22.20;57.10
431;DHT22;202;48.764;9.172;2022-08-19T06:20:12;22.20;57.50
431;DHT22;202;48.764;9.172;2022-08-19T06:22:41;22.10;58.20
431;DHT22;202;48.764;9.172;2022-08-19T06:25:11;22.20;57.70
431;DHT22;202;48.764;9.172;2022-08-19T06:27:38;22.20;57.60
431;DHT22;202;48.764;9.172;2022-08-19T06:30:06;22.20;57.50
431;DHT22;202;48.764;9.172;2022-08-19T06:32:33;22.20;57.60
431;DHT22;202;48.764;9.172;2022-08-19T06:35:00;22.30;57.50
431;DHT22;202;48.764;9.172;2022-08-19T06:37:27;22.30;57.40
431;DHT22;202;48.764;9.172;2022-08-19T06:39:53;22.20;57.30
431;DHT22;202;48.764;9.172;2022-08-19T06:42:22;22.20;58.60
431;DHT22;202;48.764;9.172;2022-08-19T06:44:48;22.20;58.70
431;DHT22;202;48.764;9.172;2022-08-19T06:47:18;22.20;59.30
431;DHT22;202;48.764;9.172;2022-08-19T06:49:45;22.20;59.40
431;DHT22;202;48.764;9.172;2022-08-19T06:52:12;22.20;58.70
431;DHT22;202;48.764;9.172;2022-08-19T06:54:40;22.20;59.70
431;DHT22;202;48.764;9.172;2022-08-19T06:57:08;22.30;60.40
431;DHT22;202;48.764;9.172;2022-08-19T06:59:40;22.30;60.70
431;DHT22;202;48.764;9.172;2022-08-19T07:02:07;22.30;60.40
431;DHT22;202;48.764;9.172;2022-08-19T07:04:35;22.30;60.00
431;DHT22;202;48.764;9.172;2022-08-19T07:07:06;22.20;62.70
431;DHT22;202;48.764;9.172;2022-08-19T07:09:36;22.10;62.40
431;DHT22;202;48.764;9.172;2022-08-19T07:12:05;22.10;65.30
431;DHT22;202;48.764;9.172;2022-08-19T07:14:33;22.10;65.80
431;DHT22;202;48.764;9.172;2022-08-19T07:17:05;22.10;65.40
431;DHT22;202;48.764;9.172;2022-08-19T07:19:33;22.10;67.20
431;DHT22;202;48.764;9.172;2022-08-19T07:22:02;22.10;66.30
431;DHT22;202;48.764;9.172;2022-08-19T07:24:30;22.20;66.30
431;DHT22;202;48.764;9.172;2022-08-19T07:26:59;22.20;65.60
431;DHT22;202;48.764;9.172;2022-08-19T07:29:29;22.20;64.50
431;DHT22;202;48.764;9.172;2022-08-19T07:31:57;22.20;64.50
431;DHT22;202;48.764;9.172;2022-08-19T07:34:26;22.20;63.90
431;DHT22;202;48.764;9.172;2022-08-19T07:36:53;22.20;64.50
431;DHT22;202;48.764;9.172;2022-08-19T07:39:24;22.20;63.00
431;DHT22;202;48.764;9.172;2022-08-19T07:41:51;22.20;62.30
431;DHT22;202;48.764;9.172;2022-08-19T07:44:19;22.10;62.20
431;DHT22;202;48.764;9.172;2022-08-19T07:46:49;22.00;62.50
431;DHT22;202;48.764;9.172;2022-08-19T07:49:17;21.90;64.20
431;DHT22;202;48.764;9.172;2022-08-19T07:51:47;21.90;64.00
431;DHT22;202;48.764;9.172;2022-08-19T07:54:14;22.00;63.70
431;DHT22;202;48.764;9.172;2022-08-19T07:56:41;22.10;63.20
431;DHT22;202;48.764;9.172;2022-08-19T07:59:08;22.10;62.90
431;DHT22;202;48.764;9.172;2022-08-19T08:01:36;22.10;62.10
431;DHT22;202;48.764;9.172;2022-08-19T08:04:06;22.10;62.40
431;DHT22;202;48.764;9.172;2022-08-19T08:06:52;22.20;62.10
431;DHT22;202;48.764;9.172;2022-08-19T08:09:39;22.20;61.50
431;DHT22;202;48.764;9.172;2022-08-19T08:12:09;22.30;61.40
431;DHT22;202;48.764;9.172;2022-08-19T08:14:39;22.30;61.30
431;DHT22;202;48.764;9.172;2022-08-19T08:17:07;22.30;61.10
431;DHT22;202;48.764;9.172;2022-08-19T08:19:34;22.30;60.60
431;DHT22;202;48.764;9.172;2022-08-19T08:22:03;22.30;60.50
431;DHT22;202;48.764;9.172;2022-08-19T08:24:31;22.30;60.20
431;DHT22;202;48.764;9.172;2022-08-19T08:27:00;22.30;60.40
431;DHT22;202;48.764;9.172;2022-08-19T08:29:30;22.30;60.20
431;DHT22;202;48.764;9.172;2022-08-19T08:31:58;22.30;60.00
431;DHT22;202;48.764;9.172;2022-08-19T08:34:25;22.30;60.00
431;DHT22;202;48.764;9.172;2022-08-19T08:36:52;22.40;59.60
431;DHT22;202;48.764;9.172;2022-08-19T08:39:21;22.40;59.60
431;DHT22;202;48.764;9.172;2022-08-19T08:41:53;22.40;59.60
431;DHT22;202;48.764;9.172;2022-08-19T08:44:28;22.40;60.00
431;DHT22;202;48.764;9.172;2022-08-19T08:46:59;22.40;60.80
431;DHT22;202;48.764;9.172;2022-08-19T08:49:31;22.50;60.90
431;DHT22;202;48.764;9.172;2022-08-19T08:52:03;22.50;61.20
431;DHT22;202;48.764;9.172;2022-08-19T08:54:36;22.50;61.10
431;DHT22;202;48.764;9.172;2022-08-19T08:57:12;22.50;62.40
431;DHT22;202;48.764;9.172;2022-08-19T08:59:41;22.40;64.40
431;DHT22;202;48.764;9.172;2022-08-19T09:02:09;22.50;64.50
431;DHT22;202;48.764;9.172;2022-08-19T09:04:36;22.40;64.60
431;DHT22;202;48.764;9.172;2022-08-19T09:07:18;22.40;65.40
431;DHT22;202;48.764;9.172;2022-08-19T09:09:52;22.40;64.60
431;DHT22;202;48.764;9.172;2022-08-19T09:12:27;22.40;66.40
431;DHT22;202;48.764;9.172;2022-08-19T09:15:03;22.40;69.70
431;DHT22;202;48.764;9.172;2022-08-19T09:17:31;22.40;69.00
431;DHT22;202;48.764;9.172;2022-08-19T09:20:04;22.40;67.30
431;DHT22;202;48.764;9.172;2022-08-19T09:22:32;22.30;69.10
431;DHT22;202;48.764;9.172;2022-08-19T09:25:01;22.40;68.20
431;DHT22;202;48.764;9.172;2022-08-19T09:27:29;22.50;64.70
431;DHT22;202;48.764;9.172;2022-08-19T09:29:56;22.50;64.70
431;DHT22;202;48.764;9.172;2022-08-19T09:32:23;22.40;66.20
431;DHT22;202;48.764;9.172;2022-08-19T09:34:51;22.50;64.70
431;DHT22;202;48.764;9.172;2022-08-19T09:37:20;22.50;65.60
431;DHT22;202;48.764;9.172;2022-08-19T09:39:47;22.60;64.80
431;DHT22;202;48.764;9.172;2022-08-19T09:42:15;22.60;64.20
431;DHT22;202;48.764;9.172;2022-08-19T09:44:42;22.70;64.00
431;DHT22;202;48.764;9.172;2022-08-19T09:47:11;22.80;63.80
431;DHT22;202;48.764;9.172;2022-08-19T09:49:39;22.90;63.50
431;DHT22;202;48.764;9.172;2022-08-19T09:52:07;22.90;61.40
431;DHT22;202;48.764;9.172;2022-08-19T09:54:35;23.00;61.70
431;DHT22;202;48.764;9.172;2022-08-19T09:57:01;22.90;61.40
431;DHT22;202;48.764;9.172;2022-08-19T09:59:30;23.00;61.00
431;DHT22;202;48.764;9.172;2022-08-19T10:01:57;23.00;60.90
431;DHT22;202;48.764;9.172;2022-08-19T10:04:24;23.00;61.20
431;DHT22;202;48.764;9.172;2022-08-19T10:07:14;23.10;61.30
431;DHT22;202;48.764;9.172;2022-08-19T10:09:41;23.10;60.20
431;DHT22;202;48.764;9.172;2022-08-19T10:12:08;23.20;59.50
431;DHT22;202;48.764;9.172;2022-08-19T10:14:36;23.20;60.00
431;DHT22;202;48.764;9.172;2022-08-19T10:17:03;23.20;59.80
431;DHT22;202;48.764;9.172;2022-08-19T10:19:30;23.20;59.50
431;DHT22;202;48.764;9.172;2022-08-19T10:22:03;23.30;59.20
431;DHT22;202;48.764;9.172;2022-08-19T10:24:30;23.30;58.10
431;DHT22;202;48.764;9.172;2022-08-19T10:26:58;23.20;58.80
431;DHT22;202;48.764;9.172;2022-08-19T10:29:26;23.30;58.50
431;DHT22;202;48.764;9.172;2022-08-19T10:31:55;23.30;58.50
431;DHT22;202;48.764;9.172;2022-08-19T10:34:23;23.40;58.70
431;DHT22;202;48.764;9.172;2022-08-19T10:36:50;23.40;58.30
431;DHT22;202;48.764;9.172;2022-08-19T10:39:17;23.50;58.00
431;DHT22;202;48.764;9.172;2022-08-19T10:41:44;23.50;57.70
431;DHT22;202;48.764;9.172;2022-08-19T10:44:12;23.60;57.70
431;DHT22;202;48.764;9.172;2022-08-19T10:49:24;23.70;55.90
431;DHT22;202;48.764;9.172;2022-08-19T10:52:02;23.70;56.60
431;DHT22;202;48.764;9.172;2022-08-19T10:54:50;23.70;55.90
431;DHT22;202;48.764;9.172;2022-08-19T10:57:53;23.70;56.00
431;DHT22;202;48.764;9.172;2022-08-19T11:00:26;23.80;56.00
431;DHT22;202;48.764;9.172;2022-08-19T11:02:56;23.70;55.30
431;DHT22;202;48.764;9.172;2022-08-19T11:05:27;23.70;55.40
431;DHT22;202;48.764;9.172;2022-08-19T11:08:05;23.70;55.00
431;DHT22;202;48.764;9.172;2022-08-19T11:13:37;23.70;54.70
431;DHT22;202;48.764;9.172;2022-08-19T11:16:16;23.70;55.00
431;DHT22;202;48.764;9.172;2022-08-19T11:18:54;23.80;54.70
431;DHT22;202;48.764;9.172;2022-08-19T11:21:46;23.80;54.60
431;DHT22;202;48.764;9.172;2022-08-19T11:24:30;23.90;54.20
431;DHT22;202;48.764;9.172;2022-08-19T11:27:08;24.00;54.00
431;DHT22;202;48.764;9.172;2022-08-19T11:32:43;24.20;53.70
431;DHT22;202;48.764;9.172;2022-08-19T11:35:42;24.20;53.00
431;DHT22;202;48.764;9.172;2022-08-19T11:45:23;24.40;52.10
431;DHT22;202;48.764;9.172;2022-08-19T11:48:21;24.40;51.60
431;DHT22;202;48.764;9.172;2022-08-19T11:51:37;24.40;51.70
431;DHT22;202;48.764;9.172;2022-08-19T11:58:07;24.40;51.10
431;DHT22;202;48.764;9.172;2022-08-19T12:04:23;24.50;50.70
431;DHT22;202;48.764;9.172;2022-08-19T12:07:27;24.60;50.40
431;DHT22;202;48.764;9.172;2022-08-19T12:16:53;24.60;49.30
431;DHT22;202;48.764;9.172;2022-08-19T12:43:52;24.60;48.60
431;DHT22;202;48.764;9.172;2022-08-19T12:47:08;24.60;50.70
431;DHT22;202;48.764;9.172;2022-08-19T12:50:19;24.50;50.50
431;DHT22;202;48.764;9.172;2022-08-19T12:52:56;24.40;52.20
431;DHT22;202;48.764;9.172;2022-08-19T12:55:53;24.30;52.50
431;DHT22;202;48.764;9.172;2022-08-19T12:58:48;24.20;52.30
431;DHT22;202;48.764;9.172;2022-08-19T13:02:10;24.10;53.60
431;DHT22;202;48.764;9.172;2022-08-19T13:07:59;24.20;53.40
431;DHT22;202;48.764;9.172;2022-08-19T13:10:42;24.10;54.00
431;DHT22;202;48.764;9.172;2022-08-19T13:13:15;24.10;53.60
431;DHT22;202;48.764;9.172;2022-08-19T13:16:03;24.10;53.80
431;DHT22;202;48.764;9.172;2022-08-19T13:18:58;24.00;56.20
431;DHT22;202;48.764;9.172;2022-08-19T13:21:44;23.80;57.60
431;DHT22;202;48.764;9.172;2022-08-19T13:24:37;23.80;57.90
431;DHT22;202;48.764;9.172;2022-08-19T13:27:25;23.90;59.00
431;DHT22;202;48.764;9.172;2022-08-19T13:29:59;23.80;60.90
431;DHT22;202;48.764;9.172;2022-08-19T13:32:49;23.70;63.00
431;DHT22;202;48.764;9.172;2022-08-19T13:35:45;23.60;65.80
431;DHT22;202;48.764;9.172;2022-08-19T13:38:23;23.50;67.10
431;DHT22;202;48.764;9.172;2022-08-19T13:41:04;23.50;68.90
431;DHT22;202;48.764;9.172;2022-08-19T13:43:46;23.40;72.00
431;DHT22;202;48.764;9.172;2022-08-19T13:46:21;23.30;75.30
431;DHT22;202;48.764;9.172;2022-08-19T13:48:57;23.10;77.40
431;DHT22;202;48.764;9.172;2022-08-19T13:51:25;22.90;79.70
431;DHT22;202;48.764;9.172;2022-08-19T13:54:00;22.70;80.20
431;DHT22;202;48.764;9.172;2022-08-19T13:56:41;22.70;82.20
431;DHT22;202;48.764;9.172;2022-08-19T13:59:11;22.70;82.30
431;DHT22;202;48.764;9.172;2022-08-19T14:01:48;22.70;83.00
431;DHT22;202;48.764;9.172;2022-08-19T14:04:20;22.50;84.60
431;DHT22;202;48.764;9.172;2022-08-19T14:06:50;22.50;84.50
431;DHT22;202;48.764;9.172;2022-08-19T14:09:28;22.50;83.90
431;DHT22;202;48.764;9.172;2022-08-19T14:11:59;22.40;85.20
431;DHT22;202;48.764;9.172;2022-08-19T14:14:36;22.40;86.50
431;DHT22;202;48.764;9.172;2022-08-19T14:17:07;22.50;85.60
431;DHT22;202;48.764;9.172;2022-08-19T14:19:41;22.50;84.40
431;DHT22;202;48.764;9.172;2022-08-19T14:22:10;22.40;86.00
431;DHT22;202;48.764;9.172;2022-08-19T14:27:44;22.30;87.10
431;DHT22;202;48.764;9.172;2022-08-19T14:30:27;22.30;88.20
431;DHT22;202;48.764;9.172;2022-08-19T14:33:00;22.30;87.00
431;DHT22;202;48.764;9.172;2022-08-19T14:35:32;22.30;86.00
431;DHT22;202;48.764;9.172;2022-08-19T14:38:19;22.30;84.70
431;DHT22;202;48.764;9.172;2022-08-19T14:41:14;22.50;81.40
431;DHT22;202;48.764;9.172;2022-08-19T14:44:07;22.40;83.10
431;DHT22;202;48.764;9.172;2022-08-19T14:46:39;22.50;83.20
431;DHT22;202;48.764;9.172;2022-08-19T14:49:10;22.50;82.80
431;DHT22;202;48.764;9.172;2022-08-19T14:51:38;22.50;83.70
431;DHT22;202;48.764;9.172;2022-08-19T14:54:05;22.50;82.70
431;DHT22;202;48.764;9.172;2022-08-19T14:56:41;22.60;83.00
431;DHT22;202;48.764;9.172;2022-08-19T14:59:09;22.50;82.40
431;DHT22;202;48.764;9.172;2022-08-19T15:01:49;22.60;80.40
431;DHT22;202;48.764;9.172;2022-08-19T15:04:21;22.70;79.80
431;DHT22;202;48.764;9.172;2022-08-19T15:06:51;22.70;79.80
431;DHT22;202;48.764;9.172;2022-08-19T15:09:21;22.70;78.60
431;DHT22;202;48.764;9.172;2022-08-19T15:11:51;22.70;78.30
431;DHT22;202;48.764;9.172;2022-08-19T15:14:29;22.80;77.70
431;DHT22;202;48.764;9.172;2022-08-19T15:17:05;22.90;77.10
431;DHT22;202;48.764;9.172;2022-08-19T15:19:40;23.00;77.00
431;DHT22;202;48.764;9.172;2022-08-19T15:22:09;23.00;76.40
431;DHT22;202;48.764;9.172;2022-08-19T15:24:36;23.10;76.40
431;DHT22;202;48.764;9.172;2022-08-19T15:27:07;23.20;75.40
431;DHT22;202;48.764;9.172;2022-08-19T15:29:36;23.10;75.00
431;DHT22;202;48.764;9.172;2022-08-19T15:32:11;23.30;73.70
431;DHT22;202;48.764;9.172;2022-08-19T15:34:38;23.40;72.10
431;DHT22;202;48.764;9.172;2022-08-19T15:37:17;23.50;71.10
431;DHT22;202;48.764;9.172;2022-08-19T15:39:56;23.50;70.70
431;DHT22;202;48.764;9.172;2022-08-19T15:42:37;23.60;70.00
431;DHT22;202;48.764;9.172;2022-08-19T15:45:14;23.70;69.10
431;DHT22;202;48.764;9.172;2022-08-19T15:48:09;23.80;68.30
431;DHT22;202;48.764;9.172;2022-08-19T15:50:40;23.80;68.10
431;DHT22;202;48.764;9.172;2022-08-19T15:53:27;23.60;70.80
431;DHT22;202;48.764;9.172;2022-08-19T15:56:00;23.70;71.20
431;DHT22;202;48.764;9.172;2022-08-19T15:58:40;23.60;71.60
431;DHT22;202;48.764;9.172;2022-08-19T16:01:46;23.50;71.30
431;DHT22;202;48.764;9.172;2022-08-19T16:07:50;23.80;71.80
431;DHT22;202;48.764;9.172;2022-08-19T16:10:49;23.90;70.60
431;DHT22;202;48.764;9.172;2022-08-19T16:23:44;23.70;70.60
431;DHT22;202;48.764;9.172;2022-08-19T16:26:26;23.80;69.70
431;DHT22;202;48.764;9.172;2022-08-19T16:28:54;23.80;68.60
431;DHT22;202;48.764;9.172;2022-08-19T16:31:29;23.90;67.40
431;DHT22;202;48.764;9.172;2022-08-19T16:34:16;23.90;66.90
431;DHT22;202;48.764;9.172;2022-08-19T16:37:09;23.90;67.30
431;DHT22;202;48.764;9.172;2022-08-19T16:40:14;24.00;67.10
431;DHT22;202;48.764;9.172;2022-08-19T16:43:38;23.90;66.60
431;DHT22;202;48.764;9.172;2022-08-19T16:46:20;23.90;67.50
431;DHT22;202;48.764;9.172;2022-08-19T16:49:30;23.90;68.30
431;DHT22;202;48.764;9.172;2022-08-19T16:52:43;23.90;68.10
431;DHT22;202;48.764;9.172;2022-08-19T16:55:53;23.80;69.30
431;DHT22;202;48.764;9.172;2022-08-19T16:59:30;23.50;70.70
431;DHT22;202;48.764;9.172;2022-08-19T17:11:26;23.40;73.50
431;DHT22;202;48.764;9.172;2022-08-19T17:14:58;23.10;75.00
431;DHT22;202;48.764;9.172;2022-08-19T17:18:00;23.00;76.70
431;DHT22;202;48.764;9.172;2022-08-19T17:20:48;22.80;78.30
431;DHT22;202;48.764;9.172;2022-08-19T17:23:47;22.70;79.30
431;DHT22;202;48.764;9.172;2022-08-19T17:27:04;22.60;79.70
431;DHT22;202;48.764;9.172;2022-08-19T17:29:52;22.50;82.10
431;DHT22;202;48.764;9.172;2022-08-19T17:35:53;22.50;81.10
431;DHT22;202;48.764;9.172;2022-08-19T17:38:23;22.60;81.40
431;DHT22;202;48.764;9.172;2022-08-19T17:41:12;22.60;81.10
431;DHT22;202;48.764;9.172;2022-08-19T17:47:15;22.40;82.20
431;DHT22;202;48.764;9.172;2022-08-19T17:50:05;22.40;82.50
431;DHT22;202;48.764;9.172;2022-08-19T18:07:47;22.50;80.90
431;DHT22;202;48.764;9.172;2022-08-19T18:09:50;22.30;82.20
431;DHT22;202;48.764;9.172;2022-08-19T18:12:46;22.30;84.10
431;DHT22;202;48.764;9.172;2022-08-19T18:15:51;22.30;84.20
431;DHT22;202;48.764;9.172;2022-08-19T18:18:37;22.30;84.20
431;DHT22;202;48.764;9.172;2022-08-19T18:25:17;22.30;84.80
431;DHT22;202;48.764;9.172;2022-08-19T18:31:46;22.40;83.80
431;DHT22;202;48.764;9.172;2022-08-19T18:35:35;22.50;83.50
431;DHT22;202;48.764;9.172;2022-08-19T18:38:25;22.50;83.10
431;DHT22;202;48.764;9.172;2022-08-19T18:41:48;22.50;83.50
431;DHT22;202;48.764;9.172;2022-08-19T18:44:46;22.40;84.30
431;DHT22;202;48.764;9.172;2022-08-19T18:48:10;22.20;86.00
431;DHT22;202;48.764;9.172;2022-08-19T18:51:28;22.20;86.90
431;DHT22;202;48.764;9.172;2022-08-19T18:54:18;22.30;86.00
431;DHT22;202;48.764;9.172;2022-08-19T18:56:45;22.20;86.20
431;DHT22;202;48.764;9.172;2022-08-19T18:59:12;22.20;85.30
431;DHT22;202;48.764;9.172;2022-08-19T19:01:43;22.30;84.80
431;DHT22;202;48.764;9.172;2022-08-19T19:04:16;22.40;84.30
431;DHT22;202;48.764;9.172;2022-08-19T19:06:45;22.30;85.00
431;DHT22;202;48.764;9.172;2022-08-19T19:09:17;22.30;85.70
431;DHT22;202;48.764;9.172;2022-08-19T19:11:47;22.20;86.80
431;DHT22;202;48.764;9.172;2022-08-19T19:14:17;22.20;87.10
431;DHT22;202;48.764;9.172;2022-08-19T19:16:47;22.20;86.80
431;DHT22;202;48.764;9.172;2022-08-19T19:19:17;22.30;85.50
431;DHT22;202;48.764;9.172;2022-08-19T19:21:47;22.30;85.30
431;DHT22;202;48.764;9.172;2022-08-19T19:24:16;22.30;84.20
431;DHT22;202;48.764;9.172;2022-08-19T19:26:46;22.30;84.20